createdAt,value
2017-12-10T00:00:40.835Z,4.07
2017-12-10T00:03:12.127Z,3.77
2017-12-10T00:05:44.883Z,4.00
2017-12-10T00:08:17.430Z,4.10
2017-12-10T00:10:49.018Z,4.60
2017-12-10T00:13:20.992Z,5.00
2017-12-10T00:15:53.648Z,4.23
2017-12-10T00:18:26.224Z,3.67
2017-12-10T00:21:02.684Z,4.27
2017-12-10T00:23:35.651Z,5.00
2017-12-10T00:26:15.383Z,4.80
2017-12-10T00:28:48.073Z,4.33
2017-12-10T00:31:22.357Z,4.77
2017-12-10T00:33:58.573Z,4.90
2017-12-10T00:36:30.495Z,4.50
2017-12-10T00:39:01.954Z,4.53
2017-12-10T00:41:34.362Z,4.33
2017-12-10T00:44:09.764Z,4.60
2017-12-10T00:46:42.112Z,4.50
2017-12-10T00:49:15.642Z,4.20
2017-12-10T00:51:48.127Z,4.93
2017-12-10T00:54:23.076Z,4.53
2017-12-10T00:56:55.159Z,4.30
2017-12-10T00:59:27.795Z,3.77
2017-12-10T01:01:59.801Z,4.57
2017-12-10T01:04:32.765Z,4.70
2017-12-10T01:07:06.870Z,4.33
2017-12-10T01:09:38.275Z,4.83
2017-12-10T01:12:10.507Z,5.30
2017-12-10T01:14:43.500Z,4.43
2017-12-10T01:17:14.891Z,5.43
2017-12-10T01:19:47.433Z,3.87
2017-12-10T01:22:19.552Z,4.30
2017-12-10T01:24:51.277Z,4.43
2017-12-10T01:27:23.059Z,4.13
2017-12-10T01:29:55.163Z,5.03
2017-12-10T01:32:26.646Z,5.20
2017-12-10T01:34:58.326Z,4.47
2017-12-10T01:37:29.715Z,5.30
2017-12-10T01:40:01.078Z,4.90
2017-12-10T01:42:32.615Z,4.50
2017-12-10T01:45:04.264Z,5.30
2017-12-10T01:47:36.131Z,5.40
2017-12-10T01:50:08.622Z,6.00
2017-12-10T01:52:40.066Z,5.60
2017-12-10T01:55:11.801Z,6.20
2017-12-10T01:57:44.611Z,5.10
2017-12-10T02:00:18.197Z,5.43
2017-12-10T02:02:49.927Z,5.30
2017-12-10T02:05:21.298Z,5.63
2017-12-10T02:07:54.005Z,5.03
2017-12-10T02:10:25.559Z,4.60
2017-12-10T02:12:57.018Z,5.80
2017-12-10T02:15:28.694Z,5.90
2017-12-10T02:18:00.116Z,6.20
2017-12-10T02:20:31.493Z,5.50
2017-12-10T02:23:03.047Z,5.70
2017-12-10T02:25:34.633Z,6.33
2017-12-10T02:28:07.898Z,5.37
2017-12-10T02:30:39.299Z,5.40
2017-12-10T02:33:10.759Z,5.00
2017-12-10T02:35:42.413Z,5.23
2017-12-10T02:38:15.130Z,5.97
2017-12-10T02:40:46.541Z,5.67
2017-12-10T02:43:17.931Z,5.20
2017-12-10T02:45:49.304Z,5.40
2017-12-10T02:48:20.962Z,4.90
2017-12-10T02:50:52.476Z,4.93
2017-12-10T02:53:23.929Z,5.30
2017-12-10T02:55:55.640Z,5.67
2017-12-10T02:58:27.043Z,4.87
2017-12-10T03:00:58.449Z,5.20
2017-12-10T03:03:29.851Z,5.53
2017-12-10T03:06:01.355Z,4.93
2017-12-10T03:08:37.569Z,4.53
2017-12-10T03:11:08.952Z,4.90
2017-12-10T03:13:41.451Z,5.10
2017-12-10T03:16:14.992Z,5.30
2017-12-10T03:18:47.982Z,5.37
2017-12-10T03:21:19.355Z,5.37
2017-12-10T03:23:51.042Z,5.17
2017-12-10T03:26:22.477Z,6.00
2017-12-10T03:28:54.158Z,4.80
2017-12-10T03:31:25.608Z,5.50
2017-12-10T03:33:56.979Z,4.50
2017-12-10T03:36:28.675Z,4.23
2017-12-10T03:39:01.376Z,4.60
2017-12-10T03:41:33.013Z,5.10
2017-12-10T03:44:05.878Z,4.53
2017-12-10T03:46:41.869Z,5.70
2017-12-10T03:49:17.258Z,4.90
2017-12-10T03:51:49.650Z,4.90
2017-12-10T03:54:22.411Z,4.50
2017-12-10T03:56:53.729Z,5.63
2017-12-10T03:59:25.335Z,4.60
2017-12-10T04:01:56.972Z,5.43
2017-12-10T04:04:28.563Z,5.67
2017-12-10T04:07:00.256Z,4.83
2017-12-10T04:09:31.975Z,4.40
2017-12-10T04:12:05.410Z,4.73
2017-12-10T04:14:37.269Z,5.10
2017-12-10T04:17:09.015Z,5.40
2017-12-10T04:19:40.396Z,4.90
2017-12-10T04:22:12.711Z,5.40
2017-12-10T04:24:44.538Z,4.80
2017-12-10T04:27:15.910Z,5.13
2017-12-10T04:29:47.429Z,4.77
2017-12-10T04:32:19.728Z,5.30
2017-12-10T04:34:51.123Z,4.13
2017-12-10T04:37:22.781Z,5.67
2017-12-10T04:39:54.183Z,4.17
2017-12-10T04:42:25.601Z,5.57
2017-12-10T04:44:57.231Z,5.33
2017-12-10T04:47:28.629Z,4.83
2017-12-10T04:50:00.052Z,3.90
2017-12-10T04:52:31.692Z,4.20
2017-12-10T04:55:04.219Z,4.60
2017-12-10T04:57:35.675Z,4.13
2017-12-10T05:00:07.815Z,4.40
2017-12-10T05:02:39.216Z,4.27
2017-12-10T05:05:10.558Z,3.83
2017-12-10T05:07:43.332Z,3.93
2017-12-10T05:10:16.738Z,3.60
2017-12-10T05:12:49.113Z,4.00
2017-12-10T05:15:20.980Z,3.70
2017-12-10T05:17:52.472Z,3.80
2017-12-10T05:20:24.196Z,3.40
2017-12-10T05:22:55.598Z,3.40
2017-12-10T05:25:27.827Z,3.10
2017-12-10T05:27:59.487Z,3.40
2017-12-10T05:30:30.911Z,2.93
2017-12-10T05:33:02.400Z,3.20
2017-12-10T05:35:34.056Z,3.50
2017-12-10T05:38:06.411Z,3.47
2017-12-10T05:40:38.075Z,3.77
2017-12-10T05:43:09.416Z,3.20
2017-12-10T05:45:40.815Z,2.93
2017-12-10T05:48:12.608Z,3.53
2017-12-10T05:50:45.243Z,2.80
2017-12-10T05:53:16.619Z,2.90
2017-12-10T05:55:48.080Z,2.60
2017-12-10T05:58:19.827Z,2.63
2017-12-10T06:00:51.284Z,2.50
2017-12-10T06:03:22.676Z,2.30
2017-12-10T06:05:54.353Z,2.43
2017-12-10T06:08:25.731Z,2.50
2017-12-10T06:10:57.098Z,2.40
2017-12-10T06:13:28.654Z,2.80
2017-12-10T06:16:00.054Z,2.73
2017-12-10T06:18:31.766Z,3.10
2017-12-10T06:21:03.335Z,2.40
2017-12-10T06:23:35.018Z,2.30
2017-12-10T06:26:07.579Z,2.30
2017-12-10T06:28:38.975Z,2.47
2017-12-10T06:31:10.363Z,2.30
2017-12-10T06:33:42.961Z,2.37
2017-12-10T06:36:16.534Z,2.27
2017-12-10T06:38:49.071Z,2.43
2017-12-10T06:41:20.554Z,2.67
2017-12-10T06:43:52.510Z,2.63
2017-12-10T06:46:23.892Z,2.30
2017-12-10T06:48:55.598Z,2.10
2017-12-10T06:51:26.948Z,2.20
2017-12-10T06:53:58.371Z,2.57
2017-12-10T06:56:30.122Z,2.87
2017-12-10T06:59:01.630Z,3.03
2017-12-10T07:01:32.999Z,2.80
2017-12-10T07:04:06.007Z,2.50
2017-12-10T07:06:37.492Z,2.50
2017-12-10T07:09:09.170Z,2.43
2017-12-10T07:11:40.548Z,2.47
2017-12-10T07:14:11.943Z,2.97
2017-12-10T07:16:44.770Z,2.73
2017-12-10T07:19:16.175Z,2.57
2017-12-10T07:21:48.663Z,2.47
2017-12-10T07:24:20.247Z,2.10
2017-12-10T07:26:52.146Z,4.20
2017-12-10T07:29:23.891Z,4.77
2017-12-10T07:31:55.561Z,4.33
2017-12-10T07:34:27.215Z,4.30
2017-12-10T07:36:58.979Z,4.40
2017-12-10T07:39:30.558Z,4.33
2017-12-10T07:42:05.021Z,4.40
2017-12-10T07:44:36.372Z,5.00
2017-12-10T07:47:07.843Z,4.53
2017-12-10T07:49:39.517Z,5.20
2017-12-10T07:52:11.812Z,5.53
2017-12-10T07:54:43.195Z,4.37
2017-12-10T07:57:15.034Z,4.30
2017-12-10T07:59:46.468Z,4.60
2017-12-10T08:02:18.127Z,4.70
2017-12-10T08:04:50.090Z,3.40
2017-12-10T08:07:21.775Z,3.43
2017-12-10T08:09:53.535Z,3.37
2017-12-10T08:12:24.951Z,2.83
2017-12-10T08:14:57.507Z,2.27
2017-12-10T08:17:29.279Z,2.40
2017-12-10T08:20:00.782Z,2.73
2017-12-10T08:22:32.395Z,1.53
2017-12-10T08:25:04.094Z,1.87
2017-12-10T08:27:35.516Z,2.30
2017-12-10T08:30:07.463Z,2.20
2017-12-10T08:32:39.101Z,2.23
2017-12-10T08:35:10.459Z,2.43
2017-12-10T08:37:42.453Z,2.70
2017-12-10T08:40:15.248Z,2.20
2017-12-10T08:42:47.104Z,2.53
2017-12-10T08:45:18.624Z,3.10
2017-12-10T08:47:50.579Z,2.70
2017-12-10T08:50:22.287Z,2.80
2017-12-10T08:52:53.671Z,2.83
2017-12-10T08:55:25.319Z,2.77
2017-12-10T08:57:56.782Z,3.03
2017-12-10T09:00:28.195Z,2.73
2017-12-10T09:02:59.896Z,2.60
2017-12-10T09:05:31.285Z,2.67
2017-12-10T09:08:03.835Z,2.67
2017-12-10T09:10:35.504Z,2.67
2017-12-10T09:13:08.029Z,2.73
2017-12-10T09:15:40.463Z,2.43
2017-12-10T09:18:12.164Z,2.77
2017-12-10T09:20:44.875Z,3.10
2017-12-10T09:23:16.830Z,3.70
2017-12-10T09:25:49.292Z,2.67
2017-12-10T09:28:21.269Z,3.00
2017-12-10T09:30:53.532Z,3.20
2017-12-10T09:33:24.889Z,3.10
2017-12-10T09:35:57.544Z,3.70
2017-12-10T09:38:29.587Z,3.50
2017-12-10T09:41:07.685Z,3.50
2017-12-10T09:43:40.702Z,3.70
2017-12-10T09:46:13.607Z,4.30
2017-12-10T09:48:46.619Z,3.30
2017-12-10T09:51:18.045Z,2.70
2017-12-10T09:53:50.915Z,3.30
2017-12-10T09:56:22.399Z,3.50
2017-12-10T09:58:54.768Z,3.10
2017-12-10T10:01:26.206Z,3.80
2017-12-10T10:03:57.830Z,5.40
2017-12-10T10:06:29.536Z,3.27
2017-12-10T10:09:01.475Z,3.60
2017-12-10T10:11:33.353Z,3.90
2017-12-10T10:14:10.984Z,4.50
2017-12-10T10:16:43.417Z,3.87
2017-12-10T10:19:15.126Z,2.70
2017-12-10T10:21:46.974Z,3.43
2017-12-10T10:24:19.625Z,3.53
2017-12-10T10:26:50.983Z,3.20
2017-12-10T10:29:22.656Z,4.03
2017-12-10T10:31:55.374Z,3.93
2017-12-10T10:34:27.332Z,3.53
2017-12-10T10:36:58.689Z,4.90
2017-12-10T10:39:30.404Z,4.67
2017-12-10T10:42:04.303Z,4.50
2017-12-10T10:44:35.826Z,4.73
2017-12-10T10:47:07.464Z,4.30
2017-12-10T10:49:40.436Z,3.43
2017-12-10T10:52:12.244Z,4.30
2017-12-10T10:54:44.041Z,4.50
2017-12-10T10:57:15.431Z,5.73
2017-12-10T10:59:47.221Z,5.83
2017-12-10T11:02:25.366Z,5.33
2017-12-10T11:04:56.853Z,6.30
2017-12-10T11:07:28.406Z,6.20
2017-12-10T11:10:00.582Z,5.90
2017-12-10T11:12:31.998Z,5.57
2017-12-10T11:15:03.719Z,4.80
2017-12-10T11:17:35.480Z,5.70
2017-12-10T11:20:07.353Z,5.53
2017-12-10T11:22:39.346Z,4.50
2017-12-10T11:25:10.822Z,4.80
2017-12-10T11:27:43.572Z,4.50
2017-12-10T11:30:17.286Z,3.73
2017-12-10T11:32:50.054Z,3.57
2017-12-10T11:35:21.468Z,3.67
2017-12-10T11:37:53.214Z,4.10
2017-12-10T11:40:24.932Z,5.10
2017-12-10T11:42:56.910Z,5.17
2017-12-10T11:45:28.310Z,4.90
2017-12-10T11:47:59.715Z,5.20
2017-12-10T11:50:31.396Z,5.60
2017-12-10T11:53:03.917Z,3.43
2017-12-10T11:55:35.476Z,4.90
2017-12-10T11:58:12.816Z,6.90
2017-12-10T12:00:44.787Z,6.20
2017-12-10T12:03:16.635Z,7.27
2017-12-10T12:05:48.066Z,5.20
2017-12-10T12:08:20.647Z,5.97
2017-12-10T12:10:52.711Z,5.47
2017-12-10T12:13:24.251Z,5.60
2017-12-10T12:15:55.693Z,4.30
2017-12-10T12:18:27.668Z,4.47
2017-12-10T12:20:59.209Z,4.33
2017-12-10T12:23:30.560Z,4.10
2017-12-10T12:26:04.261Z,4.60
2017-12-10T12:28:35.874Z,4.90
2017-12-10T12:31:07.780Z,4.10
2017-12-10T12:33:40.354Z,4.73
2017-12-10T12:36:16.232Z,4.20
2017-12-10T12:38:47.698Z,4.80
2017-12-10T12:41:20.490Z,5.17
2017-12-10T12:43:52.199Z,3.97
2017-12-10T12:46:24.348Z,3.90
2017-12-10T12:48:59.323Z,4.00
2017-12-10T12:51:35.298Z,4.30
2017-12-10T12:54:14.561Z,4.87
2017-12-10T12:56:51.985Z,3.87
2017-12-10T12:59:23.542Z,4.90
2017-12-10T13:01:55.154Z,3.70
2017-12-10T13:04:27.097Z,3.30
2017-12-10T13:06:58.595Z,3.60
2017-12-10T13:09:30.544Z,4.10
2017-12-10T13:12:03.230Z,2.87
2017-12-10T13:14:34.723Z,3.47
2017-12-10T13:17:09.770Z,4.20
2017-12-10T13:19:53.199Z,3.40
2017-12-10T13:22:25.564Z,3.83
2017-12-10T13:24:57.940Z,4.27
2017-12-10T13:27:29.284Z,3.97
2017-12-10T13:30:04.192Z,3.80
2017-12-10T13:32:35.805Z,3.20
2017-12-10T13:35:07.460Z,3.70
2017-12-10T13:37:40.756Z,3.40
2017-12-10T13:40:16.863Z,3.37
2017-12-10T13:42:52.930Z,3.40
2017-12-10T13:45:24.789Z,3.37
2017-12-10T13:47:56.194Z,3.20
2017-12-10T13:50:28.305Z,3.70
2017-12-10T13:53:07.364Z,2.87
2017-12-10T13:55:45.395Z,3.10
2017-12-10T13:58:18.428Z,2.67
2017-12-10T14:00:49.888Z,3.30
2017-12-10T14:03:21.428Z,3.03
2017-12-10T14:05:54.524Z,3.87
2017-12-10T14:08:25.933Z,3.10
2017-12-10T14:10:57.629Z,3.63
2017-12-10T14:13:29.444Z,3.83
2017-12-10T14:16:04.129Z,3.77
2017-12-10T14:18:36.275Z,4.40
2017-12-10T14:21:07.917Z,3.93
2017-12-10T14:23:40.530Z,3.83
2017-12-10T14:26:16.058Z,4.20
2017-12-10T14:28:47.776Z,4.23
2017-12-10T14:31:19.247Z,4.20
2017-12-10T14:33:50.739Z,4.47
2017-12-10T14:36:23.525Z,4.60
2017-12-10T14:38:55.067Z,3.83
2017-12-10T14:41:26.532Z,5.23
2017-12-10T14:43:59.295Z,5.40
2017-12-10T14:46:30.664Z,3.80
2017-12-10T14:49:02.631Z,4.50
2017-12-10T14:51:34.035Z,4.83
2017-12-10T14:54:08.847Z,5.40
2017-12-10T14:56:40.229Z,5.80
2017-12-10T14:59:11.633Z,4.97
2017-12-10T15:01:43.291Z,5.80
2017-12-10T15:04:16.162Z,6.67
2017-12-10T15:06:47.673Z,7.50
2017-12-10T15:09:19.492Z,7.30
2017-12-10T15:11:51.099Z,7.57
2017-12-10T15:14:23.257Z,6.60
2017-12-10T15:16:54.657Z,7.40
2017-12-10T15:19:26.097Z,6.87
2017-12-10T15:21:57.772Z,7.47
2017-12-10T15:24:29.235Z,7.53
2017-12-10T15:27:00.594Z,6.70
2017-12-10T15:29:32.447Z,7.57
2017-12-10T15:32:05.630Z,7.97
2017-12-10T15:34:37.634Z,7.97
2017-12-10T15:37:10.262Z,7.40
2017-12-10T15:39:41.728Z,7.73
2017-12-10T15:42:16.377Z,8.73
2017-12-10T15:44:49.107Z,7.33
2017-12-10T15:47:20.436Z,6.60
2017-12-10T15:49:52.165Z,7.70
2017-12-10T15:52:23.614Z,6.43
2017-12-10T15:54:55.048Z,7.27
2017-12-10T15:57:26.582Z,6.70
2017-12-10T15:59:58.318Z,5.47
2017-12-10T16:02:30.910Z,5.57
2017-12-10T16:05:02.588Z,6.50
2017-12-10T16:07:34.398Z,6.07
2017-12-10T16:10:08.799Z,6.80
2017-12-10T16:12:40.553Z,5.60
2017-12-10T16:15:13.002Z,5.63
2017-12-10T16:17:44.483Z,6.43
2017-12-10T16:20:16.356Z,5.03
2017-12-10T16:22:48.981Z,6.10
2017-12-10T16:25:20.677Z,5.87
2017-12-10T16:27:53.677Z,4.90
2017-12-10T16:30:25.305Z,5.13
2017-12-10T16:32:56.988Z,5.03
2017-12-10T16:35:29.088Z,5.47
2017-12-10T16:38:06.135Z,4.77
2017-12-10T16:40:37.943Z,4.37
2017-12-10T16:43:09.581Z,4.70
2017-12-10T16:45:42.977Z,4.80
2017-12-10T16:48:14.702Z,4.13
2017-12-10T16:50:46.402Z,3.87
2017-12-10T16:53:19.895Z,3.80
2017-12-10T16:55:52.163Z,4.60
2017-12-10T16:58:24.872Z,3.50
2017-12-10T17:00:56.963Z,3.57
2017-12-10T17:03:28.777Z,3.00
2017-12-10T17:06:01.316Z,3.10
2017-12-10T17:08:33.996Z,3.90
2017-12-10T17:11:06.346Z,3.80
2017-12-10T17:16:35.641Z,4.17
2017-12-10T17:19:12.811Z,4.63
2017-12-10T17:21:45.290Z,3.93
2017-12-10T17:24:18.289Z,3.10
2017-12-10T17:26:49.703Z,3.10
2017-12-10T17:29:21.417Z,2.60
2017-12-10T17:31:52.881Z,3.07
2017-12-10T17:34:24.527Z,3.13
2017-12-10T17:36:56.008Z,3.60
2017-12-10T17:42:23.183Z,3.60
2017-12-10T17:44:57.594Z,4.33
2017-12-10T17:47:28.986Z,4.33
2017-12-10T17:50:01.079Z,4.70
2017-12-10T17:52:33.320Z,3.50
2017-12-10T17:55:05.582Z,3.93
2017-12-10T17:57:38.416Z,4.60
2017-12-10T18:00:12.655Z,3.20
2017-12-10T18:02:46.232Z,2.77
2017-12-10T18:05:18.412Z,2.87
2017-12-10T18:07:50.643Z,2.50
2017-12-10T18:10:24.081Z,2.67
2017-12-10T18:12:55.771Z,2.70
2017-12-10T18:15:27.187Z,2.30
2017-12-10T18:17:58.811Z,2.60
2017-12-10T18:20:30.328Z,2.83
2017-12-10T18:23:02.473Z,2.67
2017-12-10T18:25:33.946Z,3.10
2017-12-10T18:28:07.573Z,2.13
2017-12-10T18:30:40.351Z,2.40
2017-12-10T18:33:11.958Z,2.00
2017-12-10T18:35:43.740Z,2.87
2017-12-10T18:38:17.419Z,2.73
2017-12-10T18:40:48.904Z,2.60
2017-12-10T18:43:20.696Z,2.47
2017-12-10T18:45:52.558Z,2.30
2017-12-10T18:48:23.979Z,2.53
2017-12-10T18:54:05.002Z,2.20
2017-12-10T19:02:24.946Z,2.60
2017-12-10T19:04:56.030Z,2.60
2017-12-10T19:07:27.325Z,3.40
2017-12-10T19:09:58.589Z,2.83
2017-12-10T19:12:29.740Z,3.27
2017-12-10T19:15:02.970Z,4.30
2017-12-10T19:17:34.024Z,3.80
2017-12-10T19:20:06.720Z,3.80
2017-12-10T19:22:39.113Z,3.60
2017-12-10T19:25:10.287Z,3.97
2017-12-10T19:27:42.200Z,3.67
2017-12-10T19:30:15.501Z,3.97
2017-12-10T19:32:47.144Z,2.60
2017-12-10T19:35:18.543Z,3.80
2017-12-10T19:40:45.163Z,2.90
2017-12-10T19:43:16.943Z,2.87
2017-12-10T19:45:48.235Z,2.50
2017-12-10T19:48:21.917Z,3.20
2017-12-10T19:50:53.065Z,4.00
2017-12-10T19:53:24.204Z,3.50
2017-12-10T19:55:55.974Z,3.57
2017-12-10T19:58:27.166Z,3.37
2017-12-10T20:00:59.344Z,3.30
2017-12-10T20:03:30.833Z,3.30
2017-12-10T20:06:03.096Z,2.90
2017-12-10T20:08:34.337Z,3.60
2017-12-10T20:11:05.590Z,2.60
2017-12-10T20:16:15.867Z,4.63
2017-12-10T20:18:47.495Z,3.77
2017-12-10T20:21:19.068Z,3.57
2017-12-10T20:23:51.217Z,3.93
2017-12-10T20:26:22.639Z,3.53
2017-12-10T20:28:54.712Z,3.00
2017-12-10T20:31:25.893Z,4.00
2017-12-10T20:33:57.219Z,3.13
2017-12-10T20:36:33.520Z,3.30
2017-12-10T20:39:10.248Z,3.57
2017-12-10T20:41:43.340Z,3.60
2017-12-10T20:44:14.611Z,3.00
2017-12-10T20:46:46.734Z,2.63
2017-12-10T20:49:18.053Z,2.73
2017-12-10T20:51:49.225Z,3.10
2017-12-10T20:54:23.563Z,3.27
2017-12-10T20:56:54.817Z,2.60
2017-12-10T20:59:26.193Z,2.57
2017-12-10T21:01:57.193Z,2.47
2017-12-10T21:04:28.205Z,1.87
2017-12-10T21:06:59.237Z,2.73
2017-12-10T21:09:30.505Z,2.57
2017-12-10T21:12:03.529Z,2.47
2017-12-10T21:14:34.533Z,2.10
2017-12-10T21:17:05.805Z,2.13
2017-12-10T21:19:36.941Z,1.30
2017-12-10T21:22:09.118Z,2.10
2017-12-10T21:24:41.398Z,1.83
2017-12-10T21:27:12.437Z,1.60
2017-12-10T21:29:43.894Z,2.33
2017-12-10T21:32:15.765Z,4.67
2017-12-10T21:34:46.794Z,2.70
2017-12-10T21:37:18.185Z,2.60
2017-12-10T21:39:49.285Z,2.00
2017-12-10T21:42:20.629Z,2.07
2017-12-10T21:44:53.735Z,1.30
2017-12-10T21:47:24.750Z,1.37
2017-12-10T21:49:58.431Z,1.77
2017-12-10T21:52:29.528Z,1.67
2017-12-10T21:55:02.523Z,1.33
2017-12-10T21:57:33.753Z,1.00
2017-12-10T22:00:07.315Z,1.30
2017-12-10T22:02:39.235Z,1.30
2017-12-10T22:05:11.551Z,1.20
2017-12-10T22:07:45.596Z,1.50
2017-12-10T22:10:18.634Z,1.43
2017-12-10T22:12:50.825Z,1.13
2017-12-10T22:15:42.811Z,1.03
2017-12-10T22:18:17.873Z,1.40
2017-12-10T22:27:19.163Z,1.10
2017-12-10T22:29:51.545Z,1.23
2017-12-10T22:32:22.612Z,1.10
2017-12-10T22:34:55.392Z,1.10
2017-12-10T22:37:29.255Z,1.03
2017-12-10T22:40:05.287Z,1.17
2017-12-10T22:42:37.369Z,0.90
2017-12-10T22:48:24.248Z,1.40
2017-12-10T22:50:58.876Z,0.90
2017-12-10T22:53:33.265Z,0.80
2017-12-10T22:56:11.460Z,0.73
2017-12-10T22:58:46.384Z,1.17
2017-12-10T23:01:19.541Z,1.50
2017-12-10T23:03:52.058Z,0.93
2017-12-10T23:06:24.603Z,0.70
2017-12-10T23:08:56.587Z,0.90
2017-12-10T23:11:29.735Z,0.90
2017-12-10T23:14:08.516Z,1.27
2017-12-10T23:16:40.409Z,1.20
2017-12-10T23:19:12.660Z,1.20
2017-12-10T23:21:49.921Z,1.03
2017-12-10T23:24:24.142Z,0.63
2017-12-10T23:27:04.901Z,2.07
2017-12-10T23:29:38.817Z,0.97
2017-12-10T23:32:10.621Z,0.67
2017-12-10T23:34:44.734Z,0.60
2017-12-10T23:37:17.081Z,1.10
2017-12-10T23:39:49.662Z,0.80
2017-12-10T23:42:22.034Z,0.83
2017-12-10T23:44:56.557Z,1.20
2017-12-10T23:47:27.552Z,1.20
2017-12-10T23:49:59.269Z,1.80
2017-12-10T23:52:30.949Z,1.80
2017-12-10T23:55:03.580Z,1.97
2017-12-10T23:57:36.307Z,1.80
